Time;durP1;ratioP1;P1;durP2;ratioP2;P2;SDS_P1;SDS_P2;PMS_P1;PMS_P2;Temp;Humidity;BMP_temperature;BMP_pressure;BME280_temperature;BME280_humidity;BME280_pressure;Samples;Min_cycle;Max_cycle;Signal;HPM_P1;HPM_P2
2023/04/17 00:01:33;;;;;;;22.33;20.33;;;10.00;99.90;;;;;;5061429;28;20415;-47
2023/04/17 00:03:58;;;;;;;21.37;19.57;;;10.00;99.90;;;;;;5060482;28;20870;-48
2023/04/17 00:06:26;;;;;;;20.77;19.07;;;10.00;99.90;;;;;;5059863;28;20303;-50
2023/04/17 00:08:51;;;;;;;21.20;19.40;;;10.00;99.90;;;;;;5060812;28;20187;-47
2023/04/17 00:11:17;;;;;;;22.00;20.00;;;10.00;99.90;;;;;;5059701;28;20782;-49
2023/04/17 00:13:43;;;;;;;21.03;19.23;;;10.00;99.90;;;;;;5041017;28;20195;-51
2023/04/17 00:16:12;;;;;;;21.73;19.83;;;10.00;99.90;;;;;;5060455;28;20194;-47
2023/04/17 00:18:38;;;;;;;21.33;19.60;;;10.10;99.90;;;;;;5061121;28;20415;-52
2023/04/17 00:21:04;;;;;;;21.33;19.53;;;10.10;99.90;;;;;;5060740;28;21063;-51
2023/04/17 00:23:30;;;;;;;21.53;19.63;;;10.10;99.90;;;;;;5060294;28;20486;-49
2023/04/17 00:25:56;;;;;;;23.10;21.00;;;10.10;99.90;;;;;;5059554;28;20440;-48
2023/04/17 00:28:22;;;;;;;23.30;21.30;;;10.10;99.90;;;;;;5059569;28;20683;-48
2023/04/17 00:30:47;;;;;;;22.27;20.37;;;10.00;99.90;;;;;;5061086;28;20642;-49
2023/04/17 00:33:13;;;;;;;22.77;20.83;;;10.10;99.90;;;;;;5060230;28;20191;-48
2023/04/17 00:35:41;;;;;;;22.70;20.70;;;10.00;99.90;;;;;;5060269;28;20196;-51
2023/04/17 00:38:08;;;;;;;22.57;20.67;;;10.10;99.90;;;;;;5060121;28;20192;-49
2023/04/17 00:40:34;;;;;;;21.83;19.93;;;10.00;99.90;;;;;;5042161;28;20434;-50
2023/04/17 00:43:00;;;;;;;21.67;19.90;;;10.00;99.90;;;;;;5058576;28;20780;-48
2023/04/17 00:45:26;;;;;;;21.53;19.73;;;10.00;99.90;;;;;;5060608;28;20438;-48
2023/04/17 00:47:52;;;;;;;21.30;19.50;;;10.00;99.90;;;;;;5059950;28;20984;-50
2023/04/17 00:50:18;;;;;;;22.47;20.40;;;10.00;99.90;;;;;;5059927;28;20284;-48
2023/04/17 00:52:45;;;;;;;21.43;19.43;;;10.00;99.90;;;;;;5060611;28;20422;-50
2023/04/17 00:55:12;;;;;;;22.07;20.17;;;10.00;99.90;;;;;;5060273;28;20190;-48
2023/04/17 00:57:38;;;;;;;20.80;19.00;;;10.00;99.90;;;;;;5058609;28;20895;-49
2023/04/17 01:00:05;;;;;;;21.03;19.13;;;10.00;99.90;;;;;;5060533;28;20509;-51
2023/04/17 01:02:31;;;;;;;21.50;19.60;;;10.00;99.90;;;;;;5060216;28;20223;-48
2023/04/17 01:04:57;;;;;;;19.97;18.27;;;10.00;99.90;;;;;;5059192;28;20986;-46
2023/04/17 01:07:23;;;;;;;21.33;19.53;;;10.00;99.90;;;;;;5059809;28;20191;-47
2023/04/17 01:09:48;;;;;;;19.97;18.30;;;10.00;99.90;;;;;;5059623;28;20190;-50
2023/04/17 01:12:22;;;;;;;22.20;20.30;;;9.90;99.90;;;;;;5057890;28;20937;-50
2023/04/17 01:14:55;;;;;;;20.47;18.77;;;9.90;99.90;;;;;;5059448;28;20207;-51
2023/04/17 01:17:22;;;;;;;21.07;19.27;;;9.90;99.90;;;;;;5058122;28;20532;-47
2023/04/17 01:19:48;;;;;;;20.03;18.33;;;9.90;99.90;;;;;;5059518;28;20425;-52
2023/04/17 01:22:20;;;;;;;20.40;18.70;;;9.90;99.90;;;;;;5058181;28;20481;-48
2023/04/17 01:24:47;;;;;;;20.53;18.73;;;9.90;99.90;;;;;;5058354;28;20495;-47
2023/04/17 01:27:13;;;;;;;20.40;18.60;;;9.90;99.90;;;;;;5059779;28;20439;-47
2023/04/17 01:29:40;;;;;;;21.00;19.20;;;9.90;99.90;;;;;;5058442;28;20935;-50
2023/04/17 01:32:05;;;;;;;20.23;18.50;;;9.90;99.90;;;;;;5040703;28;20469;-48
2023/04/17 01:34:31;;;;;;;20.93;19.10;;;9.80;99.90;;;;;;5059388;28;20432;-48
2023/04/17 01:36:57;;;;;;;19.67;18.07;;;9.90;99.90;;;;;;5058762;28;20417;-52
2023/04/17 01:39:23;;;;;;;19.93;18.33;;;9.80;99.90;;;;;;5059894;28;20674;-49
2023/04/17 01:41:48;;;;;;;20.50;18.80;;;9.90;99.90;;;;;;5058643;28;20192;-49
2023/04/17 01:44:14;;;;;;;20.00;18.30;;;9.80;99.90;;;;;;5057727;28;20304;-52
2023/04/17 01:46:39;;;;;;;19.63;17.93;;;9.90;99.90;;;;;;5059185;28;20584;-46
2023/04/17 01:49:05;;;;;;;19.70;18.10;;;9.90;99.90;;;;;;5059725;28;20186;-52
2023/04/17 01:51:31;;;;;;;19.23;17.63;;;9.90;99.90;;;;;;5059682;28;20225;-48
2023/04/17 01:53:57;;;;;;;19.00;17.50;;;9.90;99.90;;;;;;5058553;28;20176;-51
2023/04/17 01:56:22;;;;;;;18.97;17.50;;;10.00;99.90;;;;;;5057838;28;20932;-49
2023/04/17 01:58:48;;;;;;;18.60;17.03;;;9.90;99.90;;;;;;5058899;28;20197;-49
2023/04/17 02:01:13;;;;;;;18.57;17.07;;;9.90;99.90;;;;;;5058726;28;20197;-50
2023/04/17 02:03:39;;;;;;;18.67;17.27;;;9.90;99.90;;;;;;5059613;28;20239;-51
2023/04/17 02:06:05;;;;;;;18.40;16.90;;;9.90;99.90;;;;;;5057378;28;20188;-48
2023/04/17 02:08:31;;;;;;;18.53;17.03;;;9.90;99.90;;;;;;5059269;28;20633;-46
2023/04/17 02:10:56;;;;;;;18.50;17.00;;;9.90;99.90;;;;;;5057345;28;20184;-49
2023/04/17 02:13:22;;;;;;;18.60;17.10;;;9.90;99.90;;;;;;5058550;28;20235;-49
2023/04/17 02:15:47;;;;;;;17.43;16.03;;;9.90;99.90;;;;;;5057145;28;20191;-46
2023/04/17 02:18:13;;;;;;;17.87;16.47;;;9.90;99.90;;;;;;5058923;28;20722;-50
2023/04/17 02:20:38;;;;;;;17.10;15.80;;;9.90;99.90;;;;;;5058524;28;20197;-52
2023/04/17 02:23:05;;;;;;;18.90;17.40;;;9.90;99.90;;;;;;5058747;28;20691;-52
2023/04/17 02:25:31;;;;;;;15.70;14.60;;;9.90;99.90;;;;;;5058742;28;20299;-46
2023/04/17 02:27:57;;;;;;;16.60;15.40;;;9.90;99.90;;;;;;5056443;28;20924;-47
2023/04/17 02:30:23;;;;;;;16.50;15.20;;;9.90;99.90;;;;;;5058293;28;20438;-51
2023/04/17 02:32:53;;;;;;;16.73;15.47;;;9.90;99.90;;;;;;5059181;28;20424;-50
2023/04/17 02:35:20;;;;;;;15.13;14.03;;;9.80;99.90;;;;;;5058595;28;20520;-47
2023/04/17 02:37:46;;;;;;;15.83;14.53;;;9.80;99.90;;;;;;5058729;28;20456;-47
2023/04/17 02:40:12;;;;;;;15.93;14.83;;;9.80;99.90;;;;;;5057194;28;20520;-47
2023/04/17 02:42:37;;;;;;;15.13;13.97;;;9.80;99.90;;;;;;5058976;28;20437;-47
2023/04/17 02:45:03;;;;;;;15.03;13.97;;;9.80;99.90;;;;;;5058202;28;20194;-47
2023/04/17 02:47:29;;;;;;;14.67;13.57;;;9.80;99.90;;;;;;5058313;28;20731;-48
2023/04/17 02:49:55;;;;;;;14.63;13.63;;;9.80;99.90;;;;;;5059409;28;20420;-50
2023/04/17 02:52:24;;;;;;;13.87;12.97;;;9.70;99.90;;;;;;5059037;28;20525;-50
2023/04/17 02:54:49;;;;;;;13.80;12.90;;;9.70;99.90;;;;;;5056425;28;20610;-50
2023/04/17 02:57:15;;;;;;;14.73;13.73;;;9.70;99.90;;;;;;5058927;28;20428;-47
2023/04/17 02:59:41;;;;;;;14.70;13.70;;;9.70;99.90;;;;;;5058044;28;20186;-48
2023/04/17 03:02:06;;;;;;;14.40;13.37;;;9.80;99.90;;;;;;5056565;28;20959;-52
2023/04/17 03:04:33;;;;;;;15.57;14.37;;;9.80;99.90;;;;;;5057610;28;20587;-49
2023/04/17 03:06:59;;;;;;;14.53;13.50;;;9.80;99.90;;;;;;5056532;28;20206;-48
2023/04/17 03:09:25;;;;;;;15.40;14.30;;;9.70;99.90;;;;;;5056787;28;20463;-51
2023/04/17 03:11:51;;;;;;;15.20;14.03;;;9.70;99.90;;;;;;5060483;28;20832;-46
2023/04/17 03:14:16;;;;;;;14.50;13.40;;;9.70;99.90;;;;;;5060968;28;20265;-45
2023/04/17 03:16:42;;;;;;;14.60;13.50;;;9.70;99.90;;;;;;5042548;28;20821;-48
2023/04/17 03:19:08;;;;;;;15.50;14.40;;;9.70;99.90;;;;;;5062429;28;20194;-47
2023/04/17 03:21:33;;;;;;;14.93;13.83;;;9.70;99.90;;;;;;5060901;28;20189;-50
2023/04/17 03:23:59;;;;;;;16.90;15.53;;;9.70;99.90;;;;;;5062023;28;20266;-48
2023/04/17 03:26:25;;;;;;;15.00;13.70;;;9.70;99.90;;;;;;5062093;28;20268;-49
2023/04/17 03:28:50;;;;;;;14.97;13.87;;;9.70;99.90;;;;;;5061113;28;20254;-53
2023/04/17 03:31:16;;;;;;;15.53;14.40;;;9.80;99.90;;;;;;5062192;28;20418;-49
2023/04/17 03:33:41;;;;;;;14.50;13.50;;;9.70;99.90;;;;;;5061596;28;20189;-47
2023/04/17 03:36:07;;;;;;;15.33;14.23;;;9.70;99.90;;;;;;5061650;28;20229;-52
2023/04/17 03:38:34;;;;;;;15.60;14.40;;;9.70;99.90;;;;;;5060922;28;20229;-48
2023/04/17 03:41:00;;;;;;;14.67;13.47;;;9.60;99.90;;;;;;5061849;28;20187;-52
2023/04/17 03:43:26;;;;;;;14.93;13.73;;;9.70;99.90;;;;;;5060366;28;20480;-46
2023/04/17 03:45:51;;;;;;;15.90;14.60;;;9.70;99.90;;;;;;5061315;28;20264;-50
2023/04/17 03:48:17;;;;;;;16.00;14.60;;;9.70;99.90;;;;;;5060333;28;20205;-48
2023/04/17 03:50:42;;;;;;;15.23;14.03;;;9.70;99.90;;;;;;5062140;28;20949;-47
2023/04/17 03:53:08;;;;;;;16.27;15.07;;;9.70;99.90;;;;;;5043102;28;21143;-51
2023/04/17 03:55:34;;;;;;;14.80;13.70;;;9.70;99.90;;;;;;5061068;28;20185;-47
2023/04/17 03:58:00;;;;;;;15.97;14.57;;;9.70;99.90;;;;;;5060196;28;20654;-48
2023/04/17 04:00:26;;;;;;;15.33;14.20;;;9.70;99.90;;;;;;5061465;28;20194;-48
2023/04/17 04:02:51;;;;;;;17.27;15.77;;;9.70;99.90;;;;;;5043482;28;20437;-50
2023/04/17 04:05:17;;;;;;;16.47;15.23;;;9.70;99.90;;;;;;5058559;28;20976;-51
2023/04/17 04:07:43;;;;;;;18.70;16.90;;;9.70;99.90;;;;;;5061094;28;20194;-45
2023/04/17 04:10:09;;;;;;;16.57;15.27;;;9.60;99.90;;;;;;5059332;28;20188;-47
2023/04/17 04:12:35;;;;;;;16.23;15.03;;;9.60;99.90;;;;;;5061872;28;20227;-53
2023/04/17 04:15:01;;;;;;;17.20;15.80;;;9.60;99.90;;;;;;5061417;28;20464;-49
2023/04/17 04:17:26;;;;;;;16.50;15.20;;;9.60;99.90;;;;;;5061139;28;20578;-48
2023/04/17 04:19:52;;;;;;;17.33;15.93;;;9.60;99.90;;;;;;5061418;28;20185;-52
2023/04/17 04:22:20;;;;;;;18.83;17.23;;;9.60;99.90;;;;;;5060948;28;20234;-52
2023/04/17 04:24:46;;;;;;;17.70;16.30;;;9.60;99.90;;;;;;5060408;28;20829;-48
2023/04/17 04:27:12;;;;;;;15.97;14.77;;;9.60;99.90;;;;;;5062021;28;20604;-49
2023/04/17 04:29:37;;;;;;;17.80;16.30;;;9.60;99.90;;;;;;5043738;28;20430;-50
2023/04/17 04:32:03;;;;;;;18.03;16.63;;;9.60;99.90;;;;;;5060009;28;20792;-53
2023/04/17 04:34:29;;;;;;;17.80;16.30;;;9.50;99.90;;;;;;5060460;28;20656;-49
2023/04/17 04:36:58;;;;;;;17.10;15.80;;;9.60;99.90;;;;;;5041570;28;20441;-48
2023/04/17 04:39:24;;;;;;;17.23;15.90;;;9.50;99.90;;;;;;5060340;28;20195;-50
2023/04/17 04:41:51;;;;;;;17.10;15.80;;;9.60;99.90;;;;;;5060026;28;20502;-50
2023/04/17 04:44:17;;;;;;;17.57;16.23;;;9.60;99.90;;;;;;5059951;28;20485;-48
2023/04/17 04:46:43;;;;;;;17.40;16.10;;;9.60;99.90;;;;;;5042694;28;20466;-50
2023/04/17 04:49:08;;;;;;;18.23;16.80;;;9.60;99.90;;;;;;5061387;28;20417;-47
2023/04/17 04:51:34;;;;;;;18.13;16.73;;;9.60;99.90;;;;;;5060345;28;20183;-51
2023/04/17 04:54:01;;;;;;;15.70;14.50;;;9.60;99.90;;;;;;5060660;28;20646;-51
2023/04/17 04:56:27;;;;;;;16.33;15.13;;;9.60;99.90;;;;;;5059564;28;20425;-51
2023/04/17 04:58:54;;;;;;;15.60;14.40;;;9.60;99.90;;;;;;5042667;28;21292;-49
2023/04/17 05:01:19;;;;;;;16.53;15.13;;;9.50;99.90;;;;;;5058397;28;20924;-50
2023/04/17 05:03:45;;;;;;;15.00;13.90;;;9.50;99.90;;;;;;5060433;28;20506;-46
2023/04/17 05:06:12;;;;;;;14.47;13.40;;;9.50;99.90;;;;;;5060561;28;20665;-49
2023/04/17 05:08:38;;;;;;;15.20;14.10;;;9.60;99.90;;;;;;5060547;28;20190;-50
2023/04/17 05:11:05;;;;;;;14.50;13.50;;;9.60;99.90;;;;;;5059042;28;20518;-48
2023/04/17 05:13:31;;;;;;;13.97;12.77;;;9.60;99.90;;;;;;5059705;28;20438;-50
2023/04/17 05:15:56;;;;;;;14.33;13.43;;;9.60;99.90;;;;;;5059991;28;20445;-48
2023/04/17 05:18:22;;;;;;;12.67;11.77;;;9.50;99.90;;;;;;5059675;28;20228;-48
2023/04/17 05:20:48;;;;;;;13.53;12.63;;;9.60;99.90;;;;;;5060090;28;20242;-50
2023/04/17 05:23:14;;;;;;;14.07;13.10;;;9.60;99.90;;;;;;5058480;28;20481;-48
2023/04/17 05:25:40;;;;;;;12.40;11.60;;;9.60;99.90;;;;;;5060237;28;20495;-51
2023/04/17 05:28:06;;;;;;;13.17;12.27;;;9.60;99.90;;;;;;5060545;28;20322;-48
2023/04/17 05:30:32;;;;;;;11.97;11.27;;;9.60;99.90;;;;;;5059459;28;20193;-53
2023/04/17 05:32:59;;;;;;;10.40;9.80;;;9.60;99.90;;;;;;5057885;28;20439;-48
2023/04/17 05:35:26;;;;;;;10.27;9.67;;;9.60;99.90;;;;;;5058771;28;20537;-50
2023/04/17 05:37:52;;;;;;;10.80;10.20;;;9.60;99.90;;;;;;5058568;28;20429;-51
2023/04/17 05:40:18;;;;;;;11.03;10.43;;;9.60;99.90;;;;;;5059921;28;20825;-48
2023/04/17 05:42:43;;;;;;;11.97;11.27;;;9.60;99.90;;;;;;5058237;28;20428;-52
2023/04/17 05:45:17;;;;;;;10.67;10.10;;;9.60;99.90;;;;;;5059544;28;20260;-51
2023/04/17 05:47:43;;;;;;;10.40;9.80;;;9.60;99.90;;;;;;5060005;28;20182;-51
2023/04/17 05:50:08;;;;;;;10.70;10.17;;;9.60;99.90;;;;;;5059426;28;20433;-52
2023/04/17 05:52:35;;;;;;;10.90;10.30;;;9.60;99.90;;;;;;5060110;28;20592;-49
2023/04/17 05:55:01;;;;;;;11.40;10.80;;;9.60;99.90;;;;;;5059573;28;20422;-53
2023/04/17 05:57:26;;;;;;;11.63;10.90;;;9.60;99.90;;;;;;5058922;28;20774;-52
2023/04/17 05:59:52;;;;;;;11.53;10.93;;;9.60;99.90;;;;;;5059299;28;20200;-52
2023/04/17 06:02:18;;;;;;;11.50;10.80;;;9.70;99.90;;;;;;5058177;28;20360;-47
2023/04/17 06:04:43;;;;;;;11.03;10.43;;;9.70;99.90;;;;;;5059357;28;20206;-46
2023/04/17 06:07:10;;;;;;;12.37;11.67;;;9.70;99.90;;;;;;5058886;28;20580;-47
2023/04/17 06:09:36;;;;;;;11.83;11.13;;;9.70;99.90;;;;;;5058014;28;20545;-51
2023/04/17 06:12:03;;;;;;;12.77;11.97;;;9.70;99.90;;;;;;5059372;28;21195;-50
2023/04/17 06:14:29;;;;;;;12.33;11.63;;;9.70;99.90;;;;;;5059294;28;20588;-50
2023/04/17 06:16:55;;;;;;;12.90;12.20;;;9.70;99.90;;;;;;5041515;28;20835;-48
2023/04/17 06:19:22;;;;;;;13.03;12.23;;;9.70;99.90;;;;;;5059285;28;20946;-47
2023/04/17 06:21:48;;;;;;;13.13;12.43;;;9.70;99.90;;;;;;5058012;28;20837;-51
2023/04/17 06:24:13;;;;;;;11.77;11.07;;;9.70;99.90;;;;;;5059251;28;20507;-52
2023/04/17 06:26:39;;;;;;;13.07;12.27;;;9.70;99.90;;;;;;5041093;28;20922;-49
2023/04/17 06:29:04;;;;;;;12.00;11.30;;;9.70;99.90;;;;;;5057398;28;20238;-48
2023/04/17 06:31:30;;;;;;;11.63;11.03;;;9.60;99.90;;;;;;5058452;28;20235;-50
2023/04/17 06:33:56;;;;;;;12.50;11.80;;;9.60;99.90;;;;;;5058467;28;20511;-49
2023/04/17 06:36:21;;;;;;;11.73;11.13;;;9.70;99.90;;;;;;5059146;28;20732;-48
2023/04/17 06:38:47;;;;;;;11.90;11.20;;;9.70;99.90;;;;;;5035676;28;20222;-48
2023/04/17 06:41:13;;;;;;;12.77;11.83;;;9.70;99.90;;;;;;5059094;28;20211;-47
2023/04/17 06:43:39;;;;;;;13.20;12.40;;;9.80;99.90;;;;;;5059627;28;20299;-45
2023/04/17 06:46:05;;;;;;;13.00;12.30;;;9.70;99.90;;;;;;5059573;28;20432;-49
2023/04/17 06:48:30;;;;;;;12.10;11.40;;;9.80;99.90;;;;;;5062403;28;20767;-49
2023/04/17 06:50:56;;;;;;;12.00;11.40;;;9.80;99.90;;;;;;5062364;28;20203;-48
2023/04/17 06:53:21;;;;;;;12.57;11.73;;;9.80;99.90;;;;;;5063105;28;20199;-47
2023/04/17 06:55:47;;;;;;;12.77;12.07;;;9.80;99.90;;;;;;5063405;28;20205;-50
2023/04/17 06:58:13;;;;;;;12.67;11.97;;;9.90;99.90;;;;;;5063043;28;20192;-50
2023/04/17 07:00:38;;;;;;;12.70;12.00;;;9.80;99.90;;;;;;5060418;28;20994;-51
2023/04/17 07:03:05;;;;;;;13.50;12.77;;;9.90;99.90;;;;;;5061401;28;20225;-46
2023/04/17 07:05:30;;;;;;;13.63;12.80;;;9.80;99.90;;;;;;5062231;28;20189;-47
2023/04/17 07:07:56;;;;;;;14.33;13.43;;;9.80;99.90;;;;;;5061838;28;20443;-51
2023/04/17 07:10:22;;;;;;;14.40;13.50;;;9.90;99.90;;;;;;5061991;28;20200;-46
2023/04/17 07:12:47;;;;;;;14.80;13.80;;;9.90;99.90;;;;;;5062678;28;20198;-50
2023/04/17 07:15:13;;;;;;;14.70;13.80;;;9.80;99.90;;;;;;5062744;28;20690;-48
2023/04/17 07:17:39;;;;;;;14.77;13.83;;;9.90;99.90;;;;;;5061493;28;20188;-47
2023/04/17 07:20:06;;;;;;;14.33;13.40;;;9.80;99.90;;;;;;5062073;28;20269;-52
2023/04/17 07:22:33;;;;;;;14.97;14.00;;;9.90;99.90;;;;;;5062402;28;20292;-50
2023/04/17 07:24:59;;;;;;;14.40;13.50;;;9.80;99.90;;;;;;5044260;28;20806;-52
2023/04/17 07:27:25;;;;;;;15.40;14.40;;;9.90;99.90;;;;;;5062158;28;20623;-48
2023/04/17 07:29:54;;;;;;;15.17;14.17;;;9.90;99.90;;;;;;5059998;28;20564;-52
2023/04/17 07:32:23;;;;;;;15.50;14.50;;;10.00;99.90;;;;;;5040314;28;20438;-49
2023/04/17 07:34:48;;;;;;;14.97;14.03;;;10.10;99.90;;;;;;5060945;28;21120;-52
2023/04/17 07:37:14;;;;;;;15.00;14.10;;;10.10;99.90;;;;;;5060932;28;20453;-48
2023/04/17 07:39:40;;;;;;;14.80;13.90;;;10.20;99.90;;;;;;5061607;28;20210;-52
2023/04/17 07:42:07;;;;;;;14.37;13.53;;;10.30;99.90;;;;;;5061662;28;20426;-46
2023/04/17 07:44:34;;;;;;;15.53;14.63;;;10.30;99.90;;;;;;5061775;28;20657;-50
2023/04/17 07:47:00;;;;;;;14.90;14.10;;;10.40;99.90;;;;;;5061271;28;20465;-50
2023/04/17 07:49:26;;;;;;;14.50;13.70;;;10.40;99.90;;;;;;5061330;28;20418;-50
2023/04/17 07:51:52;;;;;;;15.70;14.80;;;10.30;99.90;;;;;;5060427;28;20826;-49
2023/04/17 07:54:17;;;;;;;15.43;14.50;;;10.40;99.90;;;;;;5062058;28;20425;-51
2023/04/17 07:56:45;;;;;;;15.70;14.87;;;10.40;99.90;;;;;;5061659;28;20434;-50
2023/04/17 07:59:15;;;;;;;15.10;14.30;;;10.40;99.90;;;;;;5061849;28;20613;-54
2023/04/17 08:01:41;;;;;;;15.03;14.23;;;10.40;99.90;;;;;;5059575;28;21378;-47
2023/04/17 08:04:07;;;;;;;15.40;14.50;;;10.20;99.90;;;;;;5062130;28;20474;-47
2023/04/17 08:06:32;;;;;;;15.30;14.50;;;10.20;99.90;;;;;;5061256;28;20464;-51
2023/04/17 08:09:01;;;;;;;15.40;14.50;;;10.10;99.90;;;;;;5061860;28;20914;-46
2023/04/17 08:11:27;;;;;;;15.77;14.97;;;10.10;99.90;;;;;;5058610;28;20179;-45
2023/04/17 08:13:53;;;;;;;15.73;14.83;;;10.00;99.90;;;;;;5061197;28;20828;-49
2023/04/17 08:16:20;;;;;;;16.00;15.10;;;10.00;99.90;;;;;;5060903;28;20785;-49
2023/04/17 08:18:45;;;;;;;17.07;15.97;;;10.00;99.90;;;;;;5060093;28;20442;-49
2023/04/17 08:21:11;;;;;;;15.40;14.60;;;10.00;99.90;;;;;;5060630;28;20440;-50
2023/04/17 08:23:37;;;;;;;16.40;15.40;;;10.10;99.90;;;;;;5060685;28;20352;-47
2023/04/17 08:26:02;;;;;;;17.10;16.10;;;10.10;99.90;;;;;;5043609;28;20200;-49
2023/04/17 08:28:28;;;;;;;16.93;15.83;;;10.10;99.90;;;;;;5061187;28;20227;-45
2023/04/17 08:30:54;;;;;;;16.77;15.77;;;10.10;99.90;;;;;;5060545;28;20441;-47
2023/04/17 08:33:20;;;;;;;17.07;15.97;;;10.20;99.90;;;;;;5061087;28;20250;-46
2023/04/17 08:35:46;;;;;;;16.87;15.97;;;10.20;99.90;;;;;;5061714;28;20796;-47
2023/04/17 08:38:13;;;;;;;17.60;16.60;;;10.20;99.90;;;;;;5040791;28;20209;-51
2023/04/17 08:40:45;;;;;;;17.50;16.50;;;10.30;99.90;;;;;;5061158;28;20452;-48
2023/04/17 08:43:15;;;;;;;17.27;16.17;;;10.30;99.90;;;;;;5060140;28;20987;-51
2023/04/17 08:45:48;;;;;;;17.07;16.17;;;10.40;99.90;;;;;;5059797;28;21013;-47
2023/04/17 08:48:14;;;;;;;15.90;15.10;;;10.60;99.90;;;;;;5060460;28;21006;-52
2023/04/17 08:50:45;;;;;;;15.60;14.80;;;10.70;99.90;;;;;;5059720;28;20422;-49
2023/04/17 08:53:10;;;;;;;15.27;14.47;;;10.70;99.90;;;;;;5058978;28;20456;-49
2023/04/17 08:55:36;;;;;;;15.00;14.20;;;10.80;99.90;;;;;;5060924;28;20460;-54
2023/04/17 08:58:03;;;;;;;14.40;13.70;;;10.90;99.90;;;;;;5059418;28;20199;-49
2023/04/17 09:00:40;;;;;;;14.53;13.73;;;10.80;99.90;;;;;;5058060;28;20185;-48
2023/04/17 09:03:11;;;;;;;15.80;15.00;;;10.80;99.90;;;;;;5059784;28;20484;-53
2023/04/17 09:05:44;;;;;;;16.93;15.67;;;10.70;99.90;;;;;;5058794;28;20445;-47
2023/04/17 09:08:10;;;;;;;15.63;14.83;;;10.70;99.90;;;;;;5042361;28;20577;-47
2023/04/17 09:10:38;;;;;;;15.50;14.70;;;10.70;99.90;;;;;;5059441;28;20422;-51
2023/04/17 09:13:04;;;;;;;16.33;15.43;;;10.80;99.90;;;;;;5058996;28;20174;-48
2023/04/17 09:15:30;;;;;;;15.93;15.03;;;10.90;99.90;;;;;;5060586;28;20425;-49
2023/04/17 09:17:55;;;;;;;17.10;16.10;;;10.90;99.90;;;;;;5060143;28;20468;-49
2023/04/17 09:20:21;;;;;;;17.37;16.30;;;10.80;99.90;;;;;;5060169;28;20415;-49
2023/04/17 09:22:47;;;;;;;17.30;16.20;;;10.70;99.90;;;;;;5058839;28;20330;-49
2023/04/17 09:25:18;;;;;;;16.97;15.97;;;10.60;99.90;;;;;;5059496;28;20661;-50
2023/04/17 09:27:44;;;;;;;16.90;15.80;;;10.60;99.90;;;;;;5060134;28;20188;-53
2023/04/17 09:30:10;;;;;;;18.00;16.90;;;10.50;99.90;;;;;;5058027;28;20952;-49
2023/04/17 09:32:36;;;;;;;18.23;16.93;;;10.40;99.90;;;;;;5055261;28;21310;-46
2023/04/17 09:35:03;;;;;;;18.13;16.67;;;10.30;99.90;;;;;;5058990;28;20471;-53
2023/04/17 09:37:48;;;;;;;17.70;16.53;;;10.40;99.90;;;;;;5060141;28;20180;-51
2023/04/17 09:40:15;;;;;;;16.43;15.43;;;10.50;99.90;;;;;;5059659;28;20508;-50
2023/04/17 09:43:02;;;;;;;18.10;17.00;;;10.60;99.90;;;;;;5059079;28;20458;-47
2023/04/17 09:45:38;;;;;;;17.50;16.30;;;10.70;99.90;;;;;;5058393;28;20419;-51
2023/04/17 09:48:09;;;;;;;17.80;16.53;;;10.90;99.90;;;;;;5059988;28;20401;-48
2023/04/17 09:50:36;;;;;;;17.20;15.97;;;11.20;99.90;;;;;;5059936;28;20441;-51
2023/04/17 09:53:03;;;;;;;16.00;15.00;;;11.40;99.90;;;;;;5059933;28;20977;-49
2023/04/17 09:55:32;;;;;;;16.30;15.37;;;11.70;99.90;;;;;;5059410;28;20403;-47
2023/04/17 09:58:03;;;;;;;16.00;15.00;;;11.90;99.90;;;;;;5059536;28;20415;-51
2023/04/17 10:00:29;;;;;;;17.30;16.20;;;12.00;99.90;;;;;;5058177;28;20747;-48
2023/04/17 10:02:57;;;;;;;19.80;18.50;;;12.10;99.90;;;;;;5060036;28;20706;-51
2023/04/17 10:05:26;;;;;;;19.87;18.57;;;11.90;99.90;;;;;;5041724;28;20424;-47
2023/04/17 10:07:51;;;;;;;20.57;19.03;;;11.90;99.90;;;;;;5060121;28;20425;-52
2023/04/17 10:10:30;;;;;;;21.70;20.20;;;11.80;99.90;;;;;;5059220;28;20423;-47
2023/04/17 10:13:01;;;;;;;21.17;19.67;;;11.60;99.90;;;;;;5058844;28;20770;-49
2023/04/17 10:15:28;;;;;;;22.93;21.17;;;11.50;99.90;;;;;;5059508;28;20530;-49
2023/04/17 10:17:57;;;;;;;22.07;20.50;;;11.50;99.90;;;;;;5059191;28;20767;-46
2023/04/17 10:20:22;;;;;;;22.10;20.60;;;11.50;99.90;;;;;;5059261;28;20522;-52
2023/04/17 10:23:00;;;;;;;23.00;21.30;;;11.50;99.90;;;;;;5059551;28;20451;-48
2023/04/17 10:25:29;;;;;;;22.67;21.07;;;11.60;99.90;;;;;;5059194;28;20359;-48
2023/04/17 10:27:58;;;;;;;21.20;19.70;;;11.60;99.90;;;;;;5057935;28;20471;-49
2023/04/17 10:30:43;;;;;;;20.13;18.73;;;11.60;99.90;;;;;;5058429;28;20439;-48
2023/04/17 10:33:14;;;;;;;22.03;20.60;;;11.70;99.90;;;;;;5057688;28;20901;-51
2023/04/17 10:35:40;;;;;;;21.30;19.73;;;11.80;99.90;;;;;;5058982;28;20944;-51
2023/04/17 10:38:07;;;;;;;20.90;19.50;;;12.00;99.90;;;;;;5058148;28;20419;-49
2023/04/17 10:40:37;;;;;;;22.20;20.70;;;12.00;99.90;;;;;;5039080;28;20486;-52
2023/04/17 10:43:06;;;;;;;21.50;20.07;;;12.30;99.90;;;;;;5058685;28;20424;-51
2023/04/17 10:46:04;;;;;;;22.00;20.60;;;12.60;99.90;;;;;;5058974;28;20415;-48
2023/04/17 10:48:49;;;;;;;21.63;20.20;;;12.90;99.90;;;;;;5059450;28;20430;-52
2023/04/17 10:51:23;;;;;;;21.03;19.70;;;13.10;99.90;;;;;;5059321;28;20627;-50
2023/04/17 10:53:50;;;;;;;22.10;20.70;;;13.10;99.90;;;;;;5059313;28;20420;-52
2023/04/17 10:56:46;;;;;;;21.70;20.00;;;13.10;99.90;;;;;;5058786;28;20831;-47
2023/04/17 10:59:17;;;;;;;20.57;19.27;;;13.10;99.90;;;;;;5059063;28;20713;-46
2023/04/17 11:01:48;;;;;;;22.13;20.63;;;13.00;99.90;;;;;;5057190;28;20932;-48
2023/04/17 11:04:24;;;;;;;21.57;20.17;;;12.90;99.90;;;;;;5059119;28;20577;-51
2023/04/17 11:06:51;;;;;;;21.97;20.57;;;13.00;99.90;;;;;;5058904;28;20855;-49
2023/04/17 11:09:19;;;;;;;22.23;20.77;;;12.90;99.90;;;;;;5058359;28;20647;-48
2023/04/17 11:11:45;;;;;;;22.23;20.83;;;12.80;99.90;;;;;;5058798;28;20959;-50
2023/04/17 11:14:16;;;;;;;23.37;21.57;;;12.70;99.90;;;;;;5058100;28;20439;-51
2023/04/17 11:16:44;;;;;;;20.33;18.93;;;12.70;99.90;;;;;;5058893;28;20312;-46
2023/04/17 11:19:15;;;;;;;20.73;19.43;;;12.70;99.90;;;;;;5059075;28;20423;-51
2023/04/17 11:21:42;;;;;;;21.90;20.50;;;12.80;99.90;;;;;;5058504;28;20433;-48
2023/04/17 11:24:09;;;;;;;21.77;20.47;;;12.90;99.90;;;;;;5056003;28;20463;-51
2023/04/17 11:26:44;;;;;;;20.73;19.23;;;13.10;99.90;;;;;;5058701;28;20782;-47
2023/04/17 11:29:14;;;;;;;20.73;19.43;;;13.30;99.90;;;;;;5057851;28;20749;-50
2023/04/17 11:31:40;;;;;;;20.33;19.13;;;13.30;99.90;;;;;;5057846;28;20741;-49
2023/04/17 11:34:07;;;;;;;20.43;19.13;;;13.00;99.90;;;;;;5062248;28;21108;-48
2023/04/17 11:36:32;;;;;;;20.10;18.80;;;12.70;99.90;;;;;;5062959;28;20242;-50
2023/04/17 11:38:58;;;;;;;21.40;20.00;;;12.40;99.90;;;;;;5062352;28;20415;-48
2023/04/17 11:41:34;;;;;;;19.33;18.03;;;12.00;99.90;;;;;;5061069;28;20474;-50
2023/04/17 11:44:00;;;;;;;19.77;18.47;;;11.80;99.90;;;;;;5061063;28;20560;-45
2023/04/17 11:46:26;;;;;;;21.10;19.70;;;11.80;99.90;;;;;;5043555;28;20450;-49
2023/04/17 11:48:52;;;;;;;21.77;20.27;;;11.60;99.90;;;;;;5044502;28;20431;-48
2023/04/17 11:51:18;;;;;;;21.70;20.20;;;11.50;99.90;;;;;;5061979;28;20733;-50
2023/04/17 11:53:47;;;;;;;22.87;21.30;;;11.40;99.90;;;;;;5061907;28;20192;-50
2023/04/17 11:56:16;;;;;;;22.57;20.77;;;11.30;99.90;;;;;;5060705;28;20415;-49
2023/04/17 11:58:49;;;;;;;22.47;20.97;;;11.30;99.90;;;;;;5061649;28;20893;-48
2023/04/17 12:01:16;;;;;;;22.67;21.07;;;11.50;99.90;;;;;;5061154;28;20424;-46
2023/04/17 12:03:41;;;;;;;21.90;20.43;;;11.50;99.90;;;;;;5043671;28;20929;-47
2023/04/17 12:06:08;;;;;;;21.97;20.50;;;11.50;99.90;;;;;;5062126;28;20431;-47
2023/04/17 12:08:49;;;;;;;21.80;20.40;;;11.50;99.90;;;;;;5060619;28;20315;-48
2023/04/17 12:11:34;;;;;;;21.90;20.40;;;11.50;99.90;;;;;;5060264;28;20428;-51
2023/04/17 12:14:02;;;;;;;24.17;22.27;;;11.60;99.90;;;;;;5061504;28;20889;-51
2023/04/17 12:16:28;;;;;;;23.60;21.83;;;11.70;99.90;;;;;;5061469;28;21207;-50
2023/04/17 12:18:54;;;;;;;21.27;19.90;;;11.90;99.90;;;;;;5061876;28;20423;-48
2023/04/17 12:21:20;;;;;;;20.30;19.00;;;12.00;99.90;;;;;;5061652;28;20216;-51
2023/04/17 12:23:47;;;;;;;21.67;20.17;;;12.10;99.90;;;;;;5059693;28;20479;-49
2023/04/17 12:26:13;;;;;;;22.57;21.07;;;12.30;99.90;;;;;;5061349;28;20482;-52
2023/04/17 12:28:39;;;;;;;20.17;18.87;;;12.50;99.90;;;;;;5060214;28;20834;-50
2023/04/17 12:31:05;;;;;;;19.50;18.20;;;12.60;99.90;;;;;;5060402;28;20212;-52
2023/04/17 12:33:31;;;;;;;20.10;18.80;;;12.90;99.90;;;;;;5042430;28;20197;-47